sensor_id;sensor_type;location;lat;lon;timestamp;pressure;altitude;pressure_sealevel;temperature;humidity
18533;BME280;9396;51.510;11.934;2022-10-16T00:00:33;100136.19;;;15.84;100.00
18533;BME280;9396;51.510;11.934;2022-10-16T00:03:00;100143.25;;;15.91;100.00
18533;BME280;9396;51.510;11.934;2022-10-16T00:05:27;100149.25;;;15.93;100.00
18533;BME280;9396;51.510;11.934;2022-10-16T00:07:55;100130.03;;;15.90;100.00
18533;BME280;9396;51.510;11.934;2022-10-16T00:10:22;100136.28;;;15.97;100.00
18533;BME280;9396;51.510;11.934;2022-10-16T00:12:49;100142.94;;;16.01;100.00
18533;BME280;9396;51.510;11.934;2022-10-16T00:15:16;100150.41;;;16.05;100.00
18533;BME280;9396;51.510;11.934;2022-10-16T00:17:42;100152.50;;;16.10;100.00
18533;BME280;9396;51.510;11.934;2022-10-16T00:20:09;100159.13;;;16.14;100.00
18533;BME280;9396;51.510;11.934;2022-10-16T00:22:36;100159.13;;;16.14;100.00
18533;BME280;9396;51.510;11.934;2022-10-16T00:25:04;100167.13;;;16.07;100.00
18533;BME280;9396;51.510;11.934;2022-10-16T00:27:31;100172.94;;;16.11;100.00
18533;BME280;9396;51.510;11.934;2022-10-16T00:29:57;100186.31;;;16.04;100.00
18533;BME280;9396;51.510;11.934;2022-10-16T00:32:24;100181.38;;;16.08;100.00
18533;BME280;9396;51.510;11.934;2022-10-16T00:34:51;100175.56;;;16.04;100.00
18533;BME280;9396;51.510;11.934;2022-10-16T00:37:20;100172.66;;;15.99;100.00
18533;BME280;9396;51.510;11.934;2022-10-16T00:39:46;100093.84;;;15.52;100.00
18533;BME280;9396;51.510;11.934;2022-10-16T00:42:17;100166.78;;;15.89;100.00
18533;BME280;9396;51.510;11.934;2022-10-16T00:44:48;100171.13;;;15.90;100.00
18533;BME280;9396;51.510;11.934;2022-10-16T00:47:19;100167.84;;;15.95;100.00
18533;BME280;9396;51.510;11.934;2022-10-16T00:49:50;100162.31;;;15.96;100.00
18533;BME280;9396;51.510;11.934;2022-10-16T00:52:18;100162.22;;;15.90;100.00
18533;BME280;9396;51.510;11.934;2022-10-16T00:54:46;100158.53;;;15.91;100.00
18533;BME280;9396;51.510;11.934;2022-10-16T00:57:13;100152.75;;;15.87;100.00
18533;BME280;9396;51.510;11.934;2022-10-16T00:59:42;100153.69;;;15.80;100.00
18533;BME280;9396;51.510;11.934;2022-10-16T01:02:11;100157.38;;;15.79;100.00
18533;BME280;9396;51.510;11.934;2022-10-16T01:04:40;100157.03;;;15.82;100.00
18533;BME280;9396;51.510;11.934;2022-10-16T01:07:14;100174.13;;;15.81;100.00
18533;BME280;9396;51.510;11.934;2022-10-16T01:09:49;100173.69;;;15.77;100.00
18533;BME280;9396;51.510;11.934;2022-10-16T01:12:23;100170.34;;;15.75;100.00
18533;BME280;9396;51.510;11.934;2022-10-16T01:15:02;100165.59;;;15.71;100.00
18533;BME280;9396;51.510;11.934;2022-10-16T01:17:35;100161.69;;;15.73;100.00
18533;BME280;9396;51.510;11.934;2022-10-16T01:20:10;100165.19;;;15.74;100.00
18533;BME280;9396;51.510;11.934;2022-10-16T01:22:48;100170.31;;;15.69;100.00
18533;BME280;9396;51.510;11.934;2022-10-16T01:25:25;100177.72;;;15.67;100.00
18533;BME280;9396;51.510;11.934;2022-10-16T01:27:59;100179.25;;;15.55;100.00
18533;BME280;9396;51.510;11.934;2022-10-16T01:30:30;100189.91;;;15.48;100.00
18533;BME280;9396;51.510;11.934;2022-10-16T01:33:02;100184.91;;;15.45;100.00
18533;BME280;9396;51.510;11.934;2022-10-16T01:35:32;100197.56;;;15.37;100.00
18533;BME280;9396;51.510;11.934;2022-10-16T01:38:03;100199.25;;;15.38;100.00
18533;BME280;9396;51.510;11.934;2022-10-16T01:40:33;100205.91;;;15.42;100.00
18533;BME280;9396;51.510;11.934;2022-10-16T01:43:04;100207.59;;;15.43;100.00
18533;BME280;9396;51.510;11.934;2022-10-16T01:45:34;100174.78;;;15.26;100.00
18533;BME280;9396;51.510;11.934;2022-10-16T01:48:04;100207.00;;;15.47;100.00
18533;BME280;9396;51.510;11.934;2022-10-16T01:50:35;100201.00;;;15.45;100.00
18533;BME280;9396;51.510;11.934;2022-10-16T01:53:04;100197.88;;;15.42;100.00
18533;BME280;9396;51.510;11.934;2022-10-16T01:55:33;100184.56;;;15.34;100.00
18533;BME280;9396;51.510;11.934;2022-10-16T01:58:05;100177.06;;;15.29;100.00
18533;BME280;9396;51.510;11.934;2022-10-16T02:00:33;100183.06;;;15.31;100.00
18533;BME280;9396;51.510;11.934;2022-10-16T02:03:04;100178.56;;;15.32;100.00
18533;BME280;9396;51.510;11.934;2022-10-16T02:05:36;100143.69;;;15.11;100.00
18533;BME280;9396;51.510;11.934;2022-10-16T02:08:05;100171.25;;;15.26;100.00
18533;BME280;9396;51.510;11.934;2022-10-16T02:10:32;100188.00;;;15.28;100.00
18533;BME280;9396;51.510;11.934;2022-10-16T02:13:02;100186.19;;;15.14;100.00
18533;BME280;9396;51.510;11.934;2022-10-16T02:15:31;100190.16;;;15.18;100.00
18533;BME280;9396;51.510;11.934;2022-10-16T02:17:58;100199.09;;;15.25;100.00
18533;BME280;9396;51.510;11.934;2022-10-16T02:20:27;100200.38;;;15.29;100.00
18533;BME280;9396;51.510;11.934;2022-10-16T02:22:56;100211.09;;;15.29;100.00
18533;BME280;9396;51.510;11.934;2022-10-16T02:25:27;100196.16;;;15.20;100.00
18533;BME280;9396;51.510;11.934;2022-10-16T02:28:00;100210.56;;;15.19;100.00
18533;BME280;9396;51.510;11.934;2022-10-16T02:30:32;100208.91;;;15.18;100.00
18533;BME280;9396;51.510;11.934;2022-10-16T02:33:02;100214.25;;;15.18;100.00
18533;BME280;9396;51.510;11.934;2022-10-16T02:35:31;100213.22;;;15.19;100.00
18533;BME280;9396;51.510;11.934;2022-10-16T02:37:58;100214.34;;;15.10;100.00
18533;BME280;9396;51.510;11.934;2022-10-16T02:40:26;100214.09;;;15.04;100.00
18533;BME280;9396;51.510;11.934;2022-10-16T02:42:54;100215.19;;;15.10;100.00
18533;BME280;9396;51.510;11.934;2022-10-16T02:45:21;100217.50;;;15.13;100.00
18533;BME280;9396;51.510;11.934;2022-10-16T02:47:49;100219.72;;;15.10;100.00
18533;BME280;9396;51.510;11.934;2022-10-16T02:50:16;100219.56;;;15.11;100.00
18533;BME280;9396;51.510;11.934;2022-10-16T02:52:43;100223.88;;;15.12;100.00
18533;BME280;9396;51.510;11.934;2022-10-16T02:55:10;100215.38;;;15.09;100.00
18533;BME280;9396;51.510;11.934;2022-10-16T02:57:36;100215.59;;;14.92;100.00
18533;BME280;9396;51.510;11.934;2022-10-16T03:00:06;100213.03;;;14.84;100.00
18533;BME280;9396;51.510;11.934;2022-10-16T03:02:33;100216.44;;;14.78;100.00
18533;BME280;9396;51.510;11.934;2022-10-16T03:05:01;100229.09;;;14.84;100.00
18533;BME280;9396;51.510;11.934;2022-10-16T03:07:27;100225.66;;;14.76;100.00
18533;BME280;9396;51.510;11.934;2022-10-16T03:09:54;100238.41;;;14.74;100.00
18533;BME280;9396;51.510;11.934;2022-10-16T03:12:21;100229.28;;;14.68;100.00
18533;BME280;9396;51.510;11.934;2022-10-16T03:14:47;100230.00;;;14.62;100.00
18533;BME280;9396;51.510;11.934;2022-10-16T03:17:14;100235.09;;;14.72;100.00
18533;BME280;9396;51.510;11.934;2022-10-16T03:19:42;100245.25;;;14.76;100.00
18533;BME280;9396;51.510;11.934;2022-10-16T03:22:10;100243.88;;;14.80;100.00
18533;BME280;9396;51.510;11.934;2022-10-16T03:24:36;100232.75;;;14.54;100.00
18533;BME280;9396;51.510;11.934;2022-10-16T03:27:03;100245.97;;;14.56;100.00
18533;BME280;9396;51.510;11.934;2022-10-16T03:29:29;100242.38;;;14.63;100.00
18533;BME280;9396;51.510;11.934;2022-10-16T03:31:57;100246.78;;;14.56;100.00
18533;BME280;9396;51.510;11.934;2022-10-16T03:34:24;100241.97;;;14.37;100.00
18533;BME280;9396;51.510;11.934;2022-10-16T03:36:51;100233.00;;;14.30;100.00
18533;BME280;9396;51.510;11.934;2022-10-16T03:39:19;100233.28;;;14.35;100.00
18533;BME280;9396;51.510;11.934;2022-10-16T03:41:45;100231.72;;;14.41;100.00
18533;BME280;9396;51.510;11.934;2022-10-16T03:44:12;100229.34;;;14.46;100.00
18533;BME280;9396;51.510;11.934;2022-10-16T03:46:39;100211.72;;;14.51;100.00
18533;BME280;9396;51.510;11.934;2022-10-16T03:49:06;100225.84;;;14.45;100.00
18533;BME280;9396;51.510;11.934;2022-10-16T03:51:32;100233.59;;;14.55;100.00
18533;BME280;9396;51.510;11.934;2022-10-16T03:53:59;100227.06;;;14.57;100.00
18533;BME280;9396;51.510;11.934;2022-10-16T03:56:27;100229.34;;;14.60;100.00
18533;BME280;9396;51.510;11.934;2022-10-16T03:58:53;100220.59;;;14.66;100.00
18533;BME280;9396;51.510;11.934;2022-10-16T04:01:20;100233.59;;;14.69;100.00
18533;BME280;9396;51.510;11.934;2022-10-16T04:03:47;100245.44;;;14.75;100.00
18533;BME280;9396;51.510;11.934;2022-10-16T04:06:13;100231.84;;;14.76;100.00
18533;BME280;9396;51.510;11.934;2022-10-16T04:08:42;100220.94;;;14.78;100.00
18533;BME280;9396;51.510;11.934;2022-10-16T04:11:08;100237.66;;;14.80;100.00
18533;BME280;9396;51.510;11.934;2022-10-16T04:13:36;100254.38;;;14.82;100.00
18533;BME280;9396;51.510;11.934;2022-10-16T04:16:03;100238.31;;;14.67;100.00
18533;BME280;9396;51.510;11.934;2022-10-16T04:18:30;100259.94;;;14.80;100.00
18533;BME280;9396;51.510;11.934;2022-10-16T04:20:56;100255.38;;;14.81;100.00
18533;BME280;9396;51.510;11.934;2022-10-16T04:23:23;100249.94;;;14.74;100.00
18533;BME280;9396;51.510;11.934;2022-10-16T04:25:50;100255.56;;;14.79;100.00
18533;BME280;9396;51.510;11.934;2022-10-16T04:28:17;100258.72;;;14.83;100.00
18533;BME280;9396;51.510;11.934;2022-10-16T04:30:45;100256.59;;;14.78;100.00
18533;BME280;9396;51.510;11.934;2022-10-16T04:33:12;100271.44;;;14.81;100.00
18533;BME280;9396;51.510;11.934;2022-10-16T04:35:39;100266.59;;;14.84;100.00
18533;BME280;9396;51.510;11.934;2022-10-16T04:38:05;100278.13;;;14.85;100.00
18533;BME280;9396;51.510;11.934;2022-10-16T04:40:32;100286.81;;;14.87;100.00
18533;BME280;9396;51.510;11.934;2022-10-16T04:43:01;100291.31;;;14.86;100.00
18533;BME280;9396;51.510;11.934;2022-10-16T04:45:28;100289.66;;;14.85;100.00
18533;BME280;9396;51.510;11.934;2022-10-16T04:47:58;100293.38;;;14.84;100.00
18533;BME280;9396;51.510;11.934;2022-10-16T04:50:25;100218.53;;;14.39;100.00
18533;BME280;9396;51.510;11.934;2022-10-16T04:52:52;100292.34;;;14.85;100.00
18533;BME280;9396;51.510;11.934;2022-10-16T04:55:18;100294.63;;;14.74;100.00
18533;BME280;9396;51.510;11.934;2022-10-16T04:57:45;100294.09;;;14.78;100.00
18533;BME280;9396;51.510;11.934;2022-10-16T05:00:12;100302.78;;;14.80;100.00
18533;BME280;9396;51.510;11.934;2022-10-16T05:02:39;100307.84;;;14.75;100.00
18533;BME280;9396;51.510;11.934;2022-10-16T05:05:07;100308.03;;;14.74;100.00
18533;BME280;9396;51.510;11.934;2022-10-16T05:07:34;100299.81;;;14.75;100.00
18533;BME280;9396;51.510;11.934;2022-10-16T05:10:00;100312.19;;;14.76;100.00
18533;BME280;9396;51.510;11.934;2022-10-16T05:12:27;100310.41;;;14.69;100.00
18533;BME280;9396;51.510;11.934;2022-10-16T05:14:54;100314.13;;;14.68;100.00
18533;BME280;9396;51.510;11.934;2022-10-16T05:17:23;100314.22;;;14.74;100.00
18533;BME280;9396;51.510;11.934;2022-10-16T05:19:50;100310.34;;;14.77;100.00
18533;BME280;9396;51.510;11.934;2022-10-16T05:22:18;100312.56;;;14.73;100.00
18533;BME280;9396;51.510;11.934;2022-10-16T05:24:45;100317.16;;;14.79;100.00
18533;BME280;9396;51.510;11.934;2022-10-16T05:27:11;100297.44;;;14.80;100.00
18533;BME280;9396;51.510;11.934;2022-10-16T05:29:44;100307.56;;;14.85;100.00
18533;BME280;9396;51.510;11.934;2022-10-16T05:32:10;100308.03;;;14.88;100.00
18533;BME280;9396;51.510;11.934;2022-10-16T05:34:37;100320.06;;;14.92;100.00
18533;BME280;9396;51.510;11.934;2022-10-16T05:37:04;100320.06;;;14.92;100.00
18533;BME280;9396;51.510;11.934;2022-10-16T05:39:32;100323.38;;;14.94;100.00
18533;BME280;9396;51.510;11.934;2022-10-16T05:41:58;100323.84;;;14.98;100.00
18533;BME280;9396;51.510;11.934;2022-10-16T05:44:25;100333.72;;;14.97;100.00
18533;BME280;9396;51.510;11.934;2022-10-16T05:46:52;100330.50;;;15.02;100.00
18533;BME280;9396;51.510;11.934;2022-10-16T05:49:18;100330.84;;;14.99;100.00
18533;BME280;9396;51.510;11.934;2022-10-16T05:51:45;100324.31;;;15.01;100.00
18533;BME280;9396;51.510;11.934;2022-10-16T05:54:11;100341.03;;;15.03;100.00
18533;BME280;9396;51.510;11.934;2022-10-16T05:56:39;100344.19;;;15.07;100.00
18533;BME280;9396;51.510;11.934;2022-10-16T05:59:06;100344.84;;;15.09;100.00
18533;BME280;9396;51.510;11.934;2022-10-16T06:01:33;100330.78;;;15.07;100.00
18533;BME280;9396;51.510;11.934;2022-10-16T06:04:00;100335.56;;;15.12;100.00
18533;BME280;9396;51.510;11.934;2022-10-16T06:06:27;100318.03;;;15.09;100.00
18533;BME280;9396;51.510;11.934;2022-10-16T06:08:55;100328.84;;;15.16;100.00
18533;BME280;9396;51.510;11.934;2022-10-16T06:11:24;100334.19;;;15.16;100.00
18533;BME280;9396;51.510;11.934;2022-10-16T06:13:53;100338.72;;;15.15;100.00
18533;BME280;9396;51.510;11.934;2022-10-16T06:16:22;100357.13;;;15.18;100.00
18533;BME280;9396;51.510;11.934;2022-10-16T06:18:50;100349.91;;;15.19;100.00
18533;BME280;9396;51.510;11.934;2022-10-16T06:21:19;100348.63;;;15.15;100.00
18533;BME280;9396;51.510;11.934;2022-10-16T06:23:47;100350.28;;;15.16;100.00
18533;BME280;9396;51.510;11.934;2022-10-16T06:26:16;100271.75;;;14.71;100.00
18533;BME280;9396;51.510;11.934;2022-10-16T06:28:42;100355.25;;;15.19;100.00
18533;BME280;9396;51.510;11.934;2022-10-16T06:31:11;100349.09;;;15.18;100.00
18533;BME280;9396;51.510;11.934;2022-10-16T06:33:39;100366.63;;;15.21;100.00
18533;BME280;9396;51.510;11.934;2022-10-16T06:36:07;100365.16;;;15.18;100.00
18533;BME280;9396;51.510;11.934;2022-10-16T06:38:35;100364.97;;;15.20;100.00
18533;BME280;9396;51.510;11.934;2022-10-16T06:41:02;100356.28;;;15.18;100.00
18533;BME280;9396;51.510;11.934;2022-10-16T06:43:29;100359.44;;;15.21;100.00
18533;BME280;9396;51.510;11.934;2022-10-16T06:45:59;100349.56;;;15.22;100.00
18533;BME280;9396;51.510;11.934;2022-10-16T06:48:28;100350.28;;;15.16;100.00
18533;BME280;9396;51.510;11.934;2022-10-16T06:50:56;100333.81;;;15.19;100.00
18533;BME280;9396;51.510;11.934;2022-10-16T06:53:23;100327.19;;;15.15;100.00
18533;BME280;9396;51.510;11.934;2022-10-16T06:55:50;100330.41;;;15.10;100.00
18533;BME280;9396;51.510;11.934;2022-10-16T06:58:16;100330.50;;;15.17;100.00
18533;BME280;9396;51.510;11.934;2022-10-16T07:00:43;100335.69;;;15.18;100.00
18533;BME280;9396;51.510;11.934;2022-10-16T07:03:09;100334.38;;;15.14;100.00
18533;BME280;9396;51.510;11.934;2022-10-16T07:05:38;100327.81;;;15.17;100.00
18533;BME280;9396;51.510;11.934;2022-10-16T07:08:05;100328.13;;;15.22;100.00
18533;BME280;9396;51.510;11.934;2022-10-16T07:10:32;100349.72;;;15.35;100.00
18533;BME280;9396;51.510;11.934;2022-10-16T07:12:59;100370.91;;;15.44;100.00
18533;BME280;9396;51.510;11.934;2022-10-16T07:15:26;100398.66;;;15.51;100.00
18533;BME280;9396;51.510;11.934;2022-10-16T07:17:53;100418.00;;;15.47;100.00
18533;BME280;9396;51.510;11.934;2022-10-16T07:20:20;100429.97;;;15.51;100.00
18533;BME280;9396;51.510;11.934;2022-10-16T07:22:48;100428.88;;;15.60;100.00
18533;BME280;9396;51.510;11.934;2022-10-16T07:25:14;100425.47;;;15.66;100.00
18533;BME280;9396;51.510;11.934;2022-10-16T07:27:41;100427.56;;;15.70;100.00
18533;BME280;9396;51.510;11.934;2022-10-16T07:30:08;100424.91;;;15.70;100.00
18533;BME280;9396;51.510;11.934;2022-10-16T07:32:35;100418.16;;;15.74;100.00
18533;BME280;9396;51.510;11.934;2022-10-16T07:35:01;100424.69;;;15.72;100.00
18533;BME280;9396;51.510;11.934;2022-10-16T07:37:28;100441.19;;;15.69;100.00
18533;BME280;9396;51.510;11.934;2022-10-16T07:39:56;100453.84;;;15.75;100.00
18533;BME280;9396;51.510;11.934;2022-10-16T07:42:23;100461.97;;;15.81;100.00
18533;BME280;9396;51.510;11.934;2022-10-16T07:44:49;100449.41;;;15.82;100.00
18533;BME280;9396;51.510;11.934;2022-10-16T07:47:16;100451.34;;;15.88;100.00
18533;BME280;9396;51.510;11.934;2022-10-16T07:49:42;100455.56;;;15.97;100.00
18533;BME280;9396;51.510;11.934;2022-10-16T07:52:09;100452.41;;;16.08;100.00
18533;BME280;9396;51.510;11.934;2022-10-16T07:54:36;100460.28;;;16.09;100.00
18533;BME280;9396;51.510;11.934;2022-10-16T07:57:03;100455.28;;;16.21;100.00
18533;BME280;9396;51.510;11.934;2022-10-16T07:59:30;100451.47;;;16.30;100.00
18533;BME280;9396;51.510;11.934;2022-10-16T08:01:57;100455.03;;;16.37;100.00
18533;BME280;9396;51.510;11.934;2022-10-16T08:04:23;100451.78;;;16.42;100.00
18533;BME280;9396;51.510;11.934;2022-10-16T08:06:50;100459.75;;;16.50;100.00
18533;BME280;9396;51.510;11.934;2022-10-16T08:09:16;100460.22;;;16.53;100.00
18533;BME280;9396;51.510;11.934;2022-10-16T08:11:43;100462.31;;;16.58;100.00
18533;BME280;9396;51.510;11.934;2022-10-16T08:14:11;100474.16;;;16.63;100.00
18533;BME280;9396;51.510;11.934;2022-10-16T08:16:38;100486.38;;;16.66;100.00
18533;BME280;9396;51.510;11.934;2022-10-16T08:19:04;100494.59;;;16.64;100.00
18533;BME280;9396;51.510;11.934;2022-10-16T08:21:31;100509.97;;;16.70;100.00
18533;BME280;9396;51.510;11.934;2022-10-16T08:23:57;100506.78;;;16.81;100.00
18533;BME280;9396;51.510;11.934;2022-10-16T08:26:26;100498.72;;;16.81;100.00
18533;BME280;9396;51.510;11.934;2022-10-16T08:28:53;100502.69;;;16.85;100.00
18533;BME280;9396;51.510;11.934;2022-10-16T08:31:21;100500.19;;;16.84;100.00
18533;BME280;9396;51.510;11.934;2022-10-16T08:33:48;100498.13;;;16.86;100.00
18533;BME280;9396;51.510;11.934;2022-10-16T08:36:16;100406.13;;;16.42;100.00
18533;BME280;9396;51.510;11.934;2022-10-16T08:38:42;100476.34;;;16.95;100.00
18533;BME280;9396;51.510;11.934;2022-10-16T08:41:26;100489.38;;;16.98;100.00
18533;BME280;9396;51.510;11.934;2022-10-16T08:44:09;100494.63;;;17.06;100.00
18533;BME280;9396;51.510;11.934;2022-10-16T08:46:49;100501.28;;;17.10;100.00
18533;BME280;9396;51.510;11.934;2022-10-16T08:49:21;100504.16;;;17.09;100.00
18533;BME280;9396;51.510;11.934;2022-10-16T08:51:50;100495.13;;;17.17;100.00
18533;BME280;9396;51.510;11.934;2022-10-16T08:54:26;100507.41;;;17.26;100.00
18533;BME280;9396;51.510;11.934;2022-10-16T08:56:55;100506.75;;;17.24;100.00
18533;BME280;9396;51.510;11.934;2022-10-16T08:59:22;100494.72;;;17.20;100.00
18533;BME280;9396;51.510;11.934;2022-10-16T09:01:51;100505.75;;;17.25;100.00
18533;BME280;9396;51.510;11.934;2022-10-16T09:04:45;100513.19;;;17.23;100.00
18533;BME280;9396;51.510;11.934;2022-10-16T09:07:18;100508.88;;;17.28;100.00
18533;BME280;9396;51.510;11.934;2022-10-16T09:10:06;100516.34;;;17.33;100.00
18533;BME280;9396;51.510;11.934;2022-10-16T09:12:38;100516.34;;;17.33;100.00
18533;BME280;9396;51.510;11.934;2022-10-16T09:15:17;100512.03;;;17.32;100.00
18533;BME280;9396;51.510;11.934;2022-10-16T09:17:54;100519.72;;;17.41;100.00
18533;BME280;9396;51.510;11.934;2022-10-16T09:20:30;100539.69;;;17.47;100.00
18533;BME280;9396;51.510;11.934;2022-10-16T09:23:10;100531.47;;;17.55;99.19
18533;BME280;9396;51.510;11.934;2022-10-16T09:25:44;100534.44;;;17.66;99.00
18533;BME280;9396;51.510;11.934;2022-10-16T09:28:12;100526.47;;;17.79;99.00
18533;BME280;9396;51.510;11.934;2022-10-16T09:30:39;100529.44;;;17.91;98.34
18533;BME280;9396;51.510;11.934;2022-10-16T09:33:09;100486.44;;;17.70;97.90
18533;BME280;9396;51.510;11.934;2022-10-16T09:35:38;100538.38;;;17.98;97.41
18533;BME280;9396;51.510;11.934;2022-10-16T09:38:05;100551.84;;;17.98;96.35
18533;BME280;9396;51.510;11.934;2022-10-16T09:40:33;100548.13;;;17.99;96.06
18533;BME280;9396;51.510;11.934;2022-10-16T09:43:16;100550.19;;;17.97;96.14
18533;BME280;9396;51.510;11.934;2022-10-16T09:45:53;100547.50;;;17.97;95.75
18533;BME280;9396;51.510;11.934;2022-10-16T09:48:22;100546.41;;;17.91;96.14
18533;BME280;9396;51.510;11.934;2022-10-16T09:50:56;100537.94;;;17.94;96.40
18533;BME280;9396;51.510;11.934;2022-10-16T09:53:23;100544.19;;;18.01;96.08
18533;BME280;9396;51.510;11.934;2022-10-16T09:55:50;100553.09;;;18.02;95.76
18533;BME280;9396;51.510;11.934;2022-10-16T09:58:17;100563.47;;;18.05;95.14
18533;BME280;9396;51.510;11.934;2022-10-16T10:00:49;100555.56;;;17.97;95.08
18533;BME280;9396;51.510;11.934;2022-10-16T10:03:33;100569.25;;;18.02;95.06
18533;BME280;9396;51.510;11.934;2022-10-16T10:06:01;100576.06;;;17.98;94.70
18533;BME280;9396;51.510;11.934;2022-10-16T10:08:30;100584.84;;;18.06;94.23
18533;BME280;9396;51.510;11.934;2022-10-16T10:10:56;100573.88;;;18.08;93.79
18533;BME280;9396;51.510;11.934;2022-10-16T10:13:24;100573.47;;;18.11;94.35
18533;BME280;9396;51.510;11.934;2022-10-16T10:15:52;100582.19;;;18.13;94.42
18533;BME280;9396;51.510;11.934;2022-10-16T10:18:22;100587.34;;;18.14;94.30
18533;BME280;9396;51.510;11.934;2022-10-16T10:20:57;100578.66;;;18.12;94.70
18533;BME280;9396;51.510;11.934;2022-10-16T10:23:27;100569.56;;;18.20;95.03
18533;BME280;9396;51.510;11.934;2022-10-16T10:25:59;100583.25;;;18.18;94.77
18533;BME280;9396;51.510;11.934;2022-10-16T10:28:54;100583.28;;;18.25;94.50
18533;BME280;9396;51.510;11.934;2022-10-16T10:31:27;100592.44;;;18.31;94.29
18533;BME280;9396;51.510;11.934;2022-10-16T10:34:01;100589.94;;;18.29;94.20
18533;BME280;9396;51.510;11.934;2022-10-16T10:36:34;100594.34;;;18.37;93.69
18533;BME280;9396;51.510;11.934;2022-10-16T10:39:06;100590.56;;;18.31;94.10
18533;BME280;9396;51.510;11.934;2022-10-16T10:41:51;100595.97;;;18.31;94.12
18533;BME280;9396;51.510;11.934;2022-10-16T10:44:31;100597.22;;;18.35;93.81
18533;BME280;9396;51.510;11.934;2022-10-16T10:47:08;100606.13;;;18.36;93.83
18533;BME280;9396;51.510;11.934;2022-10-16T10:49:54;100602.19;;;18.32;93.46
18533;BME280;9396;51.510;11.934;2022-10-16T10:52:33;100599.94;;;18.35;93.21
18533;BME280;9396;51.510;11.934;2022-10-16T10:55:10;100602.00;;;18.40;93.70
18533;BME280;9396;51.510;11.934;2022-10-16T10:57:49;100606.75;;;18.38;92.90
18533;BME280;9396;51.510;11.934;2022-10-16T11:00:22;100602.41;;;18.37;92.87
18533;BME280;9396;51.510;11.934;2022-10-16T11:02:59;100599.53;;;18.38;92.64
18533;BME280;9396;51.510;11.934;2022-10-16T11:05:38;100603.22;;;18.37;92.95
18533;BME280;9396;51.510;11.934;2022-10-16T11:08:11;100599.50;;;18.32;93.41
18533;BME280;9396;51.510;11.934;2022-10-16T11:10:45;100602.34;;;18.24;93.34
18533;BME280;9396;51.510;11.934;2022-10-16T11:13:23;100608.13;;;18.21;94.08
18533;BME280;9396;51.510;11.934;2022-10-16T11:15:56;100612.91;;;18.25;94.29
18533;BME280;9396;51.510;11.934;2022-10-16T11:18:29;100615.19;;;18.28;94.07
18533;BME280;9396;51.510;11.934;2022-10-16T11:21:02;100616.47;;;18.32;93.40
18533;BME280;9396;51.510;11.934;2022-10-16T11:23:35;100608.81;;;18.36;93.38
18533;BME280;9396;51.510;11.934;2022-10-16T11:26:08;100608.00;;;18.35;93.94
18533;BME280;9396;51.510;11.934;2022-10-16T11:28:44;100612.34;;;18.36;93.58
18533;BME280;9396;51.510;11.934;2022-10-16T11:31:14;100605.53;;;18.40;93.52
18533;BME280;9396;51.510;11.934;2022-10-16T11:33:46;100623.63;;;18.46;93.27
18533;BME280;9396;51.510;11.934;2022-10-16T11:36:19;100615.75;;;18.45;93.23
18533;BME280;9396;51.510;11.934;2022-10-16T11:38:52;100612.84;;;18.46;92.89
18533;BME280;9396;51.510;11.934;2022-10-16T11:41:27;100625.31;;;18.47;93.49
18533;BME280;9396;51.510;11.934;2022-10-16T11:44:09;100610.78;;;18.48;93.27
18533;BME280;9396;51.510;11.934;2022-10-16T11:46:45;100609.94;;;18.48;92.79
18533;BME280;9396;51.510;11.934;2022-10-16T11:49:16;100617.44;;;18.52;93.02
18533;BME280;9396;51.510;11.934;2022-10-16T11:51:54;100627.00;;;18.55;93.37
18533;BME280;9396;51.510;11.934;2022-10-16T11:54:29;100617.03;;;18.55;93.77
18533;BME280;9396;51.510;11.934;2022-10-16T11:57:02;100623.91;;;18.58;92.74
18533;BME280;9396;51.510;11.934;2022-10-16T11:59:36;100618.31;;;18.59;92.96
18533;BME280;9396;51.510;11.934;2022-10-16T12:02:38;100625.56;;;18.59;93.32
18533;BME280;9396;51.510;11.934;2022-10-16T12:05:19;100624.53;;;18.60;93.11
18533;BME280;9396;51.510;11.934;2022-10-16T12:07:55;100622.66;;;18.60;92.96
18533;BME280;9396;51.510;11.934;2022-10-16T12:10:29;100615.84;;;18.64;93.52
18533;BME280;9396;51.510;11.934;2022-10-16T12:12:57;100620.81;;;18.67;93.06
18533;BME280;9396;51.510;11.934;2022-10-16T12:15:26;100619.56;;;18.63;93.05
18533;BME280;9396;51.510;11.934;2022-10-16T12:17:53;100615.00;;;18.64;93.33
18533;BME280;9396;51.510;11.934;2022-10-16T12:20:24;100621.25;;;18.71;92.61
18533;BME280;9396;51.510;11.934;2022-10-16T12:22:56;100551.38;;;18.29;92.56
18533;BME280;9396;51.510;11.934;2022-10-16T12:25:26;100622.56;;;18.81;93.04
18533;BME280;9396;51.510;11.934;2022-10-16T12:28:01;100622.56;;;18.81;91.90
18533;BME280;9396;51.510;11.934;2022-10-16T12:30:31;100584.47;;;18.50;91.23
18533;BME280;9396;51.510;11.934;2022-10-16T12:33:00;100615.47;;;18.74;91.16
18533;BME280;9396;51.510;11.934;2022-10-16T12:35:30;100627.28;;;18.73;91.40
18533;BME280;9396;51.510;11.934;2022-10-16T12:38:07;100623.78;;;18.72;91.76
18533;BME280;9396;51.510;11.934;2022-10-16T12:40:38;100621.06;;;18.72;91.06
18533;BME280;9396;51.510;11.934;2022-10-16T12:43:36;100610.28;;;18.72;90.85
18533;BME280;9396;51.510;11.934;2022-10-16T12:46:06;100556.19;;;18.33;90.41
18533;BME280;9396;51.510;11.934;2022-10-16T12:48:46;100629.59;;;18.82;90.29
18533;BME280;9396;51.510;11.934;2022-10-16T12:51:22;100627.97;;;18.88;90.09
18533;BME280;9396;51.510;11.934;2022-10-16T12:53:59;100630.25;;;18.91;89.53
18533;BME280;9396;51.510;11.934;2022-10-16T12:56:35;100623.22;;;18.90;89.54